• Join FlightAware (Why Join?)
  • Login
  • US Flag 
10:49PM EDT


 

Airport Tracker/Info


-or-


 

Live Flight TrackerFlight Track Log ✈ AAL1631 ✈ 20-Oct-2013 ✈ KDFW - KPHX

Flight Track Log - Related Links

Times and Time Zones

All times are in EDT time to prevent confusion due to time zone crossing. See the AAL1631 flight status page for this flight to view local times or setup timezone preferences in your user account.

Time Position Orientation Groundspeed Altitude Reporting Facility
EDT Latitude Longitude Course Direction KTS MPH feet Rate Location/Type
10:49PM 32.8833 -97.0500 224° Southwest 155 178 1,200  Level Dallas / Fort Worth TRACON
10:50PM 32.8667 -97.0667 220° Southwest 143 165 2,700 1,980 Climbing Dallas / Fort Worth TRACON
10:51PM 32.8000 -97.0667 180° South 237 273 4,600 2,040 Climbing Dallas / Fort Worth TRACON
10:52PM 32.9333 -97.4224 259° West  Level Estimated
10:52PM 32.7500 -97.1167 220° Southwest 260 299 7,000  Level Dallas / Fort Worth TRACON
10:53PM 32.9452 -97.5506 248° West  Level Estimated
10:53PM 32.7500 -97.2000 270° West 254 292 9,700  Level Dallas / Fort Worth TRACON
10:53PM 32.7478 -97.2381 266° West 267 307 10,200 1,320 Climbing Fort Worth Center
10:54PM 32.9570 -97.6789 270° West  Level Estimated
10:54PM 32.7436 -97.3344 267° West 314 361 11,700  Level Fort Worth Center
10:55PM 32.8785 -97.7677 224° Southwest  Level FlightAware Approximate
10:55PM 32.7394 -97.4628 268° West 353 406 14,700  Level Fort Worth Center
10:56PM 32.7372 -97.5714 269° West 369 425 16,900 2,700 Climbing Fort Worth Center
10:57PM 32.7350 -97.7047 269° West 374 430 20,100 2,160 Climbing Fort Worth Center
10:58PM 32.7367 -97.8283 271° West 368 423 21,300 1,440 Climbing Fort Worth Center
10:59PM 32.7361 -97.9592 270° West 390 449 23,000 1,560 Climbing Fort Worth Center
11:00PM 32.7208 -98.0925 262° West 403 464 24,500 1,620 Climbing Fort Worth Center
11:01PM 32.6992 -98.2231 259° West 408 470 26,300 1,500 Climbing Fort Worth Center
11:02PM 32.6817 -98.3586 261° West 413 475 27,600 1,140 Climbing Fort Worth Center
11:03PM 32.6658 -98.4894 262° West 413 475 28,600 1,320 Climbing Fort Worth Center
11:04PM 32.6458 -98.6297 260° West 413 475 30,300 1,980 Climbing Fort Worth Center
11:05PM 32.6319 -98.7603 263° West 418 481 32,600 1,560 Climbing Fort Worth Center
11:06PM 32.6117 -98.8858 259° West 407 468 33,500 660 Climbing Fort Worth Center
11:07PM 32.5956 -99.0089 261° West 392 451 34,000 240 Climbing Fort Worth Center
11:08PM 32.5794 -99.1317 261° West 392 451 34,000  Level Fort Worth Center
11:09PM 32.5631 -99.2597 261° West 392 451 34,000  Level Fort Worth Center
11:10PM 32.5444 -99.3875 260° West 392 451 34,000  Level Fort Worth Center
11:11PM 32.5278 -99.5128 261° West 392 451 34,000  Level Fort Worth Center
11:12PM 32.5086 -99.6428 260° West 392 451 34,000  Level Fort Worth Center
11:13PM 32.4897 -99.7728 260° West 392 451 34,000  Level Fort Worth Center
11:14PM 32.4769 -99.8883 263° West 392 451 34,000  Level Fort Worth Center
11:15PM 32.4700 -100.0211 266° West 398 458 34,000  Level Fort Worth Center
11:16PM 32.4631 -100.1514 266° West 403 464 34,000  Level Fort Worth Center
11:17PM 32.4561 -100.2817 266° West 403 464 34,000  Level Fort Worth Center
11:18PM 32.4489 -100.4144 266° West 403 464 34,000  Level Fort Worth Center
11:19PM 32.4417 -100.5397 266° West 403 464 34,000  Level Fort Worth Center
11:20PM 32.4339 -100.6722 266° West 403 464 34,000  Level Fort Worth Center
11:21PM 32.4264 -100.8050 266° West 403 464 34,000  Level Fort Worth Center
11:22PM 32.4186 -100.9350 266° West 403 464 34,000  Level Fort Worth Center
11:23PM 32.4128 -101.0628 267° West 403 464 34,000  Level Fort Worth Center
11:24PM 32.3986 -101.1925 263° West 403 464 34,000  Level Fort Worth Center
11:25PM 32.3922 -101.3275 267° West 403 464 34,000  Level Fort Worth Center
11:26PM 32.3819 -101.4600 265° West 403 464 34,000  Level Fort Worth Center
11:27PM 32.3733 -101.5925 266° West 403 464 34,000  Level Fort Worth Center
11:28PM 32.3669 -101.7225 267° West 403 464 34,000  Level Fort Worth Center
11:29PM 32.3561 -101.8547 264° West 403 464 34,000  Level Fort Worth Center
11:30PM 32.3447 -101.9919 264° West 403 464 34,000  Level Fort Worth Center
11:31PM 32.3358 -102.1242 265° West 403 464 34,000  Level Fort Worth Center
11:32PM 32.3328 -102.2592 269° West 408 470 34,000  Level Fort Worth Center
11:33PM 32.3317 -102.3942 269° West 408 470 34,000  Level Fort Worth Center
11:34PM 32.3381 -102.5422 273° West 414 476 34,000  Level Fort Worth Center
11:35PM 32.3408 -102.6800 271° West 419 482 34,000  Level Fort Worth Center
11:36PM 32.3436 -102.8128 271° West 419 482 34,000  Level Fort Worth Center
11:37PM 32.3458 -102.9483 271° West 419 482 34,000  Level Fort Worth Center
11:39PM 32.3475 -103.1283 271° West 412 474 34,000  Level Albuquerque Center
11:40PM 32.3492 -103.2639 271° West 412 474 34,000  Level Albuquerque Center
11:41PM 32.3506 -103.4003 271° West 413 475 34,000  Level Albuquerque Center
11:42PM 32.3528 -103.5369 271° West 415 478 34,000  Level Albuquerque Center
11:43PM 32.3533 -103.6731 270° West 416 479 34,000  Level Albuquerque Center
11:44PM 32.3550 -103.8114 271° West 418 481 34,000  Level Albuquerque Center
11:45PM 32.3564 -103.9492 271° West 420 483 34,000  Level Albuquerque Center
11:46PM 32.3561 -104.1069 270° West 419 482 34,000  Level Albuquerque Center
11:47PM 32.3558 -104.2436 270° West 418 481 34,000  Level Albuquerque Center
11:48PM 32.3558 -104.3825 270° West 422 486 34,000  Level Albuquerque Center
11:49PM 32.3564 -104.5217 270° West 424 488 34,000  Level Albuquerque Center
11:50PM 32.3567 -104.6628 270° West 429 494 34,000 -60 Level Albuquerque Center
11:51PM 32.3553 -104.7989 269° West 420 483 33,900  Descending Albuquerque Center
11:52PM 32.3558 -104.9364 270° West 420 483 34,000  Climbing Albuquerque Center
11:53PM 32.3553 -105.0750 270° West 423 487 34,000 -60 Level Albuquerque Center
11:54PM 32.3547 -105.2133 270° West 424 488 33,900  Descending Albuquerque Center
11:55PM 32.3536 -105.3553 270° West 430 495 34,000  Climbing Albuquerque Center
11:56PM 32.3525 -105.4956 270° West 431 496 34,000 -60 Level Albuquerque Center
11:57PM 32.3519 -105.6553 270° West 412 474 33,900  Descending Albuquerque Center
11:58PM 32.3489 -105.7881 268° West 406 467 34,000  Climbing Albuquerque Center
11:59PM 32.3486 -105.9231 270° West 410 472 34,000  Level Albuquerque Center
12:00AM 32.3469 -106.0600 269° West 417 480 34,000  Level Albuquerque Center
12:01AM 32.3450 -106.1961 269° West 416 479 34,000  Level Albuquerque Center
12:02AM 32.3442 -106.3281 270° West 417 480 34,000  Level Albuquerque Center
12:03AM 32.3422 -106.4647 269° West 415 478 34,000 -60 Level Albuquerque Center
12:04AM 32.3403 -106.6017 269° West 416 479 33,900  Descending Albuquerque Center
12:05AM 32.3386 -106.7361 269° West 411 473 34,000  Climbing Albuquerque Center
12:06AM 32.3358 -106.8983 269° West 412 474 34,000  Level Albuquerque Center
12:07AM 32.3331 -107.0336 269° West 413 475 34,000  Level Albuquerque Center
12:08AM 32.3314 -107.1706 269° West 415 478 34,000  Level Albuquerque Center
12:09AM 32.3281 -107.2867 268° West 421 484 34,000  Level Albuquerque Center
12:10AM 32.3228 -107.4497 268° West 417 480 34,000  Level Albuquerque Center
12:11AM 32.3206 -107.5644 269° West 416 479 34,000  Level Albuquerque Center
12:12AM 32.3169 -107.7025 268° West 419 482 34,000 -60 Level Albuquerque Center
12:13AM 32.3131 -107.8675 268° West 419 482 33,900  Descending Albuquerque Center
12:14AM 32.3094 -108.0053 268° West 419 482 34,000  Climbing Albuquerque Center
12:15AM 32.3061 -108.1417 268° West 417 480 34,000  Level Albuquerque Center
12:16AM 32.3019 -108.2822 268° West 425 489 34,000  Level Albuquerque Center
12:17AM 32.2972 -108.4208 268° West 424 488 34,000  Level Albuquerque Center
12:18AM 32.2944 -108.5550 269° West 424 488 34,000  Level Albuquerque Center
12:19AM 32.2892 -108.6936 267° West 422 486 34,000  Level Albuquerque Center
12:20AM 32.2853 -108.8306 268° West 419 482 34,000  Level Albuquerque Center
12:21AM 32.2814 -108.9672 268° West 417 480 34,000  Level Albuquerque Center
12:23AM 32.2737 -109.1161 267° West  Level FlightAware Approximate
12:23AM 32.2714 -109.2428 267° West 417 480 34,000  Level Albuquerque Center
12:24AM 32.2975 -109.3781 283° West 420 483 34,000  Level Albuquerque Center
12:25AM 32.3314 -109.5094 287° West 417 480 34,000  Level Albuquerque Center
12:26AM 32.3631 -109.6403 286° West 416 479 34,000 -660 Level Albuquerque Center
12:28AM 32.3939 -109.7786 285° West  Level FlightAware Approximate
12:29AM 32.4586 -110.0361 287° West 418 481 31,500  Level Albuquerque Center
12:31AM 32.4869 -110.1688 284° West  Level FlightAware Approximate
12:31AM 32.5256 -110.3225 284° West 410 472 26,200  Level Albuquerque Center
12:33AM 32.5480 -110.4547 281° West  Level FlightAware Approximate
12:33AM 32.5778 -110.5472 281° West 388 447 24,000  Level Albuquerque Center
12:35AM 32.5911 -110.6309 287° West  Level FlightAware Approximate
12:35AM 32.6025 -110.6766 287° West  Level FlightAware Approximate
12:36AM 32.7453 -110.8936 312° West 375 432 20,600  Level Albuquerque Center
12:38AM 32.8099 -110.9971 308° West  Level Estimated
12:39AM 32.8833 -111.1667 270° West 338 389 14,700  Level Phoenix TRACON
12:40AM 32.9000 -111.2000 301° West 337 388 14,100 -2,040 Descending Phoenix TRACON
12:41AM 32.9500 -111.3000 301° West 333 383 12,100 -1,140 Descending Phoenix TRACON
12:42AM 32.9961 -111.4003 312° West  Level FlightAware Approximate
12:42AM 32.9842 -111.3700 300° West 312 359 12,000  Level Albuquerque Center
12:44AM 33.0833 -111.5333 306° West 291 335 9,300 -1,080 Descending Phoenix TRACON
12:45AM 33.2000 -111.6819 270° West  Level FlightAware Approximate
12:45AM 33.1194 -111.6056 301° West 284 327 8,900  Level Albuquerque Center
12:46AM 33.1797 -111.6344 338° Northwest 239 275 9,000 -900 Climbing Albuquerque Center
12:48AM 33.3167 -111.6833 343° North 221 254 6,100 -1,320 Descending Phoenix TRACON
12:49AM 33.3569 -111.6975 344° North 215 247 5,100 -720 Descending Albuquerque Center
12:51AM 33.4142 -111.7917 306° West 174 200 4,100 -600 Descending Albuquerque Center
12:53AM 33.4311 -111.8978 281° West 165 190 2,800 -720 Descending Albuquerque Center
12:54AM 33.4314 -111.9481 270° West 154 177 2,000 -900 Descending Albuquerque Center
12:55AM 33.4308 -112.0050 269° West 156 180 1,000 -1,020 Descending Albuquerque Center